Melo, Argentina
Current Conditions -  °F | °C
As of 3:00 PM on Wednesday 28 Jan 2015 (Local Time) from SAOC Reporting Station
Scattered Clouds Scattered Clouds  
Wind Chill: 82°   Ceiling: Unl
Heat Index: 82°   Visibility: 6mi
Dew Point: 59°   Wind: 21mph
Humidity: 45%   Direction: 110°ESE
Pressure: 29.85"   Gusts: NA
Location:  34.42°S, 63.57°W
Report Text: SAOC 281800Z 11018KT 9999 SCT020 SCT20028/15 Q1011
Loading
Personal Weather Stations






























Interactive Weather Map New forecast layout! Learn more

10-Day Weather Forecast

Advertisements
Track Severe Weather on mobile